sensor_id;sensor_type;location;lat;lon;timestamp;P1;durP1;ratioP1;P2;durP2;ratioP2
12681;SDS011;6405;59.208;18.216;2024-02-26T00:02:00;25.77;;;10.27;;
12681;SDS011;6405;59.208;18.216;2024-02-26T00:04:25;22.27;;;9.67;;
12681;SDS011;6405;59.208;18.216;2024-02-26T00:06:51;22.37;;;9.93;;
12681;SDS011;6405;59.208;18.216;2024-02-26T00:09:19;18.07;;;9.20;;
12681;SDS011;6405;59.208;18.216;2024-02-26T00:11:44;18.30;;;9.63;;
12681;SDS011;6405;59.208;18.216;2024-02-26T00:14:10;16.70;;;9.10;;
12681;SDS011;6405;59.208;18.216;2024-02-26T00:16:36;18.93;;;8.80;;
12681;SDS011;6405;59.208;18.216;2024-02-26T00:19:04;20.23;;;9.20;;
12681;SDS011;6405;59.208;18.216;2024-02-26T00:21:30;17.50;;;8.37;;
12681;SDS011;6405;59.208;18.216;2024-02-26T00:23:55;14.63;;;8.33;;
12681;SDS011;6405;59.208;18.216;2024-02-26T00:26:21;18.93;;;8.60;;
12681;SDS011;6405;59.208;18.216;2024-02-26T00:28:47;14.07;;;7.73;;
12681;SDS011;6405;59.208;18.216;2024-02-26T00:31:12;17.07;;;8.63;;
12681;SDS011;6405;59.208;18.216;2024-02-26T00:33:38;15.53;;;8.60;;
12681;SDS011;6405;59.208;18.216;2024-02-26T00:36:04;16.97;;;7.83;;
12681;SDS011;6405;59.208;18.216;2024-02-26T00:38:30;20.87;;;8.40;;
12681;SDS011;6405;59.208;18.216;2024-02-26T00:40:56;18.57;;;8.03;;
12681;SDS011;6405;59.208;18.216;2024-02-26T00:43:22;14.03;;;8.17;;
12681;SDS011;6405;59.208;18.216;2024-02-26T00:45:47;15.70;;;8.30;;
12681;SDS011;6405;59.208;18.216;2024-02-26T00:48:13;14.93;;;8.63;;
12681;SDS011;6405;59.208;18.216;2024-02-26T00:50:39;16.40;;;8.77;;
12681;SDS011;6405;59.208;18.216;2024-02-26T00:53:05;16.00;;;7.60;;
12681;SDS011;6405;59.208;18.216;2024-02-26T00:55:30;16.17;;;8.23;;
12681;SDS011;6405;59.208;18.216;2024-02-26T00:57:56;12.70;;;7.90;;
12681;SDS011;6405;59.208;18.216;2024-02-26T01:00:22;14.17;;;8.53;;
12681;SDS011;6405;59.208;18.216;2024-02-26T01:02:48;14.37;;;8.47;;
12681;SDS011;6405;59.208;18.216;2024-02-26T01:05:13;15.23;;;8.30;;
12681;SDS011;6405;59.208;18.216;2024-02-26T01:07:40;17.47;;;8.70;;
12681;SDS011;6405;59.208;18.216;2024-02-26T01:10:06;15.57;;;8.10;;
12681;SDS011;6405;59.208;18.216;2024-02-26T01:12:35;14.87;;;8.50;;
12681;SDS011;6405;59.208;18.216;2024-02-26T01:15:01;16.10;;;9.00;;
12681;SDS011;6405;59.208;18.216;2024-02-26T01:17:28;14.27;;;9.07;;
12681;SDS011;6405;59.208;18.216;2024-02-26T01:19:54;18.33;;;9.00;;
12681;SDS011;6405;59.208;18.216;2024-02-26T01:22:20;19.97;;;9.77;;
12681;SDS011;6405;59.208;18.216;2024-02-26T01:24:46;17.40;;;9.53;;
12681;SDS011;6405;59.208;18.216;2024-02-26T01:27:12;20.03;;;9.50;;
12681;SDS011;6405;59.208;18.216;2024-02-26T01:29:39;18.40;;;10.10;;
12681;SDS011;6405;59.208;18.216;2024-02-26T01:32:05;18.87;;;9.83;;
12681;SDS011;6405;59.208;18.216;2024-02-26T01:34:31;19.47;;;9.97;;
12681;SDS011;6405;59.208;18.216;2024-02-26T01:36:57;24.40;;;10.83;;
12681;SDS011;6405;59.208;18.216;2024-02-26T01:39:22;21.83;;;9.27;;
12681;SDS011;6405;59.208;18.216;2024-02-26T01:41:48;19.47;;;9.63;;
12681;SDS011;6405;59.208;18.216;2024-02-26T01:44:14;19.33;;;10.47;;
12681;SDS011;6405;59.208;18.216;2024-02-26T01:46:40;19.53;;;10.33;;
12681;SDS011;6405;59.208;18.216;2024-02-26T01:49:06;21.93;;;10.47;;
12681;SDS011;6405;59.208;18.216;2024-02-26T01:51:33;16.33;;;9.73;;
12681;SDS011;6405;59.208;18.216;2024-02-26T01:54:01;30.10;;;11.80;;
12681;SDS011;6405;59.208;18.216;2024-02-26T01:56:28;22.27;;;11.20;;
12681;SDS011;6405;59.208;18.216;2024-02-26T01:59:00;22.27;;;10.97;;
12681;SDS011;6405;59.208;18.216;2024-02-26T02:01:29;24.57;;;10.50;;
12681;SDS011;6405;59.208;18.216;2024-02-26T02:03:57;22.73;;;10.23;;
12681;SDS011;6405;59.208;18.216;2024-02-26T02:06:24;25.47;;;11.17;;
12681;SDS011;6405;59.208;18.216;2024-02-26T02:08:52;32.73;;;12.30;;
12681;SDS011;6405;59.208;18.216;2024-02-26T02:11:17;22.83;;;11.17;;
12681;SDS011;6405;59.208;18.216;2024-02-26T02:13:43;32.50;;;12.27;;
12681;SDS011;6405;59.208;18.216;2024-02-26T02:16:09;26.90;;;12.37;;
12681;SDS011;6405;59.208;18.216;2024-02-26T02:18:35;26.03;;;10.83;;
12681;SDS011;6405;59.208;18.216;2024-02-26T02:21:01;23.40;;;11.57;;
12681;SDS011;6405;59.208;18.216;2024-02-26T02:23:27;24.57;;;11.53;;
12681;SDS011;6405;59.208;18.216;2024-02-26T02:25:52;34.33;;;12.33;;
12681;SDS011;6405;59.208;18.216;2024-02-26T02:28:20;34.40;;;12.20;;
12681;SDS011;6405;59.208;18.216;2024-02-26T02:30:46;24.33;;;11.90;;
12681;SDS011;6405;59.208;18.216;2024-02-26T02:33:13;21.77;;;10.73;;
12681;SDS011;6405;59.208;18.216;2024-02-26T02:35:40;22.90;;;11.83;;
12681;SDS011;6405;59.208;18.216;2024-02-26T02:38:06;23.83;;;11.47;;
12681;SDS011;6405;59.208;18.216;2024-02-26T02:40:32;24.30;;;11.37;;
12681;SDS011;6405;59.208;18.216;2024-02-26T02:42:58;26.73;;;10.60;;
12681;SDS011;6405;59.208;18.216;2024-02-26T02:45:25;21.80;;;11.43;;
12681;SDS011;6405;59.208;18.216;2024-02-26T02:47:51;28.73;;;13.10;;
12681;SDS011;6405;59.208;18.216;2024-02-26T02:50:16;25.57;;;11.53;;
12681;SDS011;6405;59.208;18.216;2024-02-26T02:52:42;29.27;;;12.50;;
12681;SDS011;6405;59.208;18.216;2024-02-26T02:55:08;21.37;;;11.00;;
12681;SDS011;6405;59.208;18.216;2024-02-26T02:57:33;24.70;;;11.83;;
12681;SDS011;6405;59.208;18.216;2024-02-26T02:59:59;46.07;;;13.53;;
12681;SDS011;6405;59.208;18.216;2024-02-26T03:02:25;44.63;;;13.47;;
12681;SDS011;6405;59.208;18.216;2024-02-26T03:04:51;29.47;;;11.57;;
12681;SDS011;6405;59.208;18.216;2024-02-26T03:07:17;29.50;;;11.70;;
12681;SDS011;6405;59.208;18.216;2024-02-26T03:09:42;26.13;;;11.80;;
12681;SDS011;6405;59.208;18.216;2024-02-26T03:12:08;32.03;;;11.27;;
12681;SDS011;6405;59.208;18.216;2024-02-26T03:14:34;21.63;;;10.87;;
12681;SDS011;6405;59.208;18.216;2024-02-26T03:16:59;30.80;;;11.70;;
12681;SDS011;6405;59.208;18.216;2024-02-26T03:19:25;32.93;;;11.57;;
12681;SDS011;6405;59.208;18.216;2024-02-26T03:21:51;54.03;;;13.27;;
12681;SDS011;6405;59.208;18.216;2024-02-26T03:24:17;22.57;;;10.10;;
12681;SDS011;6405;59.208;18.216;2024-02-26T03:26:42;31.57;;;10.90;;
12681;SDS011;6405;59.208;18.216;2024-02-26T03:29:08;31.60;;;11.63;;
12681;SDS011;6405;59.208;18.216;2024-02-26T03:31:34;74.10;;;14.83;;
12681;SDS011;6405;59.208;18.216;2024-02-26T03:33:59;48.73;;;13.63;;
12681;SDS011;6405;59.208;18.216;2024-02-26T03:36:25;58.00;;;12.97;;
12681;SDS011;6405;59.208;18.216;2024-02-26T03:38:51;103.43;;;15.97;;
12681;SDS011;6405;59.208;18.216;2024-02-26T03:41:17;104.80;;;16.33;;
12681;SDS011;6405;59.208;18.216;2024-02-26T03:43:43;127.43;;;17.87;;
12681;SDS011;6405;59.208;18.216;2024-02-26T03:46:10;124.57;;;16.20;;
12681;SDS011;6405;59.208;18.216;2024-02-26T03:48:38;77.53;;;12.80;;
12681;SDS011;6405;59.208;18.216;2024-02-26T03:51:05;147.50;;;17.13;;
12681;SDS011;6405;59.208;18.216;2024-02-26T03:53:30;79.13;;;13.23;;
12681;SDS011;6405;59.208;18.216;2024-02-26T03:55:56;56.63;;;12.27;;
12681;SDS011;6405;59.208;18.216;2024-02-26T03:58:22;51.27;;;11.30;;
12681;SDS011;6405;59.208;18.216;2024-02-26T04:00:48;36.70;;;11.30;;
12681;SDS011;6405;59.208;18.216;2024-02-26T04:03:30;41.73;;;10.90;;
12681;SDS011;6405;59.208;18.216;2024-02-26T04:05:56;32.17;;;10.20;;
12681;SDS011;6405;59.208;18.216;2024-02-26T04:08:22;26.17;;;9.97;;
12681;SDS011;6405;59.208;18.216;2024-02-26T04:10:48;68.43;;;13.50;;
12681;SDS011;6405;59.208;18.216;2024-02-26T04:13:13;68.47;;;14.00;;
12681;SDS011;6405;59.208;18.216;2024-02-26T04:15:39;67.50;;;13.83;;
12681;SDS011;6405;59.208;18.216;2024-02-26T04:18:05;63.77;;;13.63;;
12681;SDS011;6405;59.208;18.216;2024-02-26T04:20:31;80.13;;;13.97;;
12681;SDS011;6405;59.208;18.216;2024-02-26T04:22:57;79.50;;;13.00;;
12681;SDS011;6405;59.208;18.216;2024-02-26T04:25:22;49.47;;;11.87;;
12681;SDS011;6405;59.208;18.216;2024-02-26T04:27:48;38.80;;;12.57;;
12681;SDS011;6405;59.208;18.216;2024-02-26T04:30:14;44.43;;;12.37;;
12681;SDS011;6405;59.208;18.216;2024-02-26T04:32:39;75.33;;;15.07;;
12681;SDS011;6405;59.208;18.216;2024-02-26T04:35:05;43.57;;;12.03;;
12681;SDS011;6405;59.208;18.216;2024-02-26T04:37:31;59.40;;;14.03;;
12681;SDS011;6405;59.208;18.216;2024-02-26T04:40:00;26.93;;;11.70;;
12681;SDS011;6405;59.208;18.216;2024-02-26T04:42:26;26.77;;;10.80;;
12681;SDS011;6405;59.208;18.216;2024-02-26T04:44:52;23.67;;;11.00;;
12681;SDS011;6405;59.208;18.216;2024-02-26T04:47:19;24.43;;;10.47;;
12681;SDS011;6405;59.208;18.216;2024-02-26T04:49:47;21.57;;;10.00;;
12681;SDS011;6405;59.208;18.216;2024-02-26T04:52:14;26.27;;;11.13;;
12681;SDS011;6405;59.208;18.216;2024-02-26T04:54:40;20.07;;;9.87;;
12681;SDS011;6405;59.208;18.216;2024-02-26T04:57:05;26.23;;;11.10;;
12681;SDS011;6405;59.208;18.216;2024-02-26T04:59:31;28.63;;;11.73;;
12681;SDS011;6405;59.208;18.216;2024-02-26T05:01:57;44.20;;;12.67;;
12681;SDS011;6405;59.208;18.216;2024-02-26T05:04:22;26.17;;;11.13;;
12681;SDS011;6405;59.208;18.216;2024-02-26T05:06:48;23.23;;;10.70;;
12681;SDS011;6405;59.208;18.216;2024-02-26T05:09:14;22.87;;;10.73;;
12681;SDS011;6405;59.208;18.216;2024-02-26T05:11:39;27.73;;;11.30;;
12681;SDS011;6405;59.208;18.216;2024-02-26T05:14:05;19.90;;;10.17;;
12681;SDS011;6405;59.208;18.216;2024-02-26T05:16:31;18.60;;;9.80;;
12681;SDS011;6405;59.208;18.216;2024-02-26T05:18:57;17.60;;;9.67;;
12681;SDS011;6405;59.208;18.216;2024-02-26T05:21:23;22.53;;;10.53;;
12681;SDS011;6405;59.208;18.216;2024-02-26T05:23:48;19.80;;;10.13;;
12681;SDS011;6405;59.208;18.216;2024-02-26T05:26:21;20.83;;;9.33;;
12681;SDS011;6405;59.208;18.216;2024-02-26T05:28:47;20.73;;;9.70;;
12681;SDS011;6405;59.208;18.216;2024-02-26T05:31:14;17.57;;;9.83;;
12681;SDS011;6405;59.208;18.216;2024-02-26T05:33:40;30.43;;;11.47;;
12681;SDS011;6405;59.208;18.216;2024-02-26T05:36:06;70.67;;;13.87;;
12681;SDS011;6405;59.208;18.216;2024-02-26T05:38:31;42.63;;;13.60;;
12681;SDS011;6405;59.208;18.216;2024-02-26T05:40:57;33.93;;;12.30;;
12681;SDS011;6405;59.208;18.216;2024-02-26T05:43:24;28.30;;;12.50;;
12681;SDS011;6405;59.208;18.216;2024-02-26T05:45:50;25.60;;;11.47;;
12681;SDS011;6405;59.208;18.216;2024-02-26T05:48:16;27.37;;;11.50;;
12681;SDS011;6405;59.208;18.216;2024-02-26T05:50:42;25.67;;;12.40;;
12681;SDS011;6405;59.208;18.216;2024-02-26T05:53:07;22.57;;;11.20;;
12681;SDS011;6405;59.208;18.216;2024-02-26T05:55:33;23.50;;;11.83;;
12681;SDS011;6405;59.208;18.216;2024-02-26T05:57:59;25.43;;;11.60;;
12681;SDS011;6405;59.208;18.216;2024-02-26T06:00:24;35.10;;;13.50;;
12681;SDS011;6405;59.208;18.216;2024-02-26T06:02:50;25.73;;;12.73;;
12681;SDS011;6405;59.208;18.216;2024-02-26T06:05:16;31.13;;;14.10;;
12681;SDS011;6405;59.208;18.216;2024-02-26T06:07:41;28.53;;;12.83;;
12681;SDS011;6405;59.208;18.216;2024-02-26T06:10:07;25.67;;;12.17;;
12681;SDS011;6405;59.208;18.216;2024-02-26T06:12:36;28.83;;;13.00;;
12681;SDS011;6405;59.208;18.216;2024-02-26T06:15:02;37.20;;;15.03;;
12681;SDS011;6405;59.208;18.216;2024-02-26T06:17:29;28.00;;;13.43;;
12681;SDS011;6405;59.208;18.216;2024-02-26T06:19:55;31.20;;;14.33;;
12681;SDS011;6405;59.208;18.216;2024-02-26T06:22:20;28.07;;;13.53;;
12681;SDS011;6405;59.208;18.216;2024-02-26T06:24:46;36.37;;;13.73;;
12681;SDS011;6405;59.208;18.216;2024-02-26T06:27:12;48.27;;;15.77;;
12681;SDS011;6405;59.208;18.216;2024-02-26T06:29:37;99.00;;;21.13;;
12681;SDS011;6405;59.208;18.216;2024-02-26T06:32:04;117.40;;;18.93;;
12681;SDS011;6405;59.208;18.216;2024-02-26T06:34:30;110.13;;;18.43;;
12681;SDS011;6405;59.208;18.216;2024-02-26T06:36:56;124.20;;;20.83;;
12681;SDS011;6405;59.208;18.216;2024-02-26T06:39:21;105.90;;;17.13;;
12681;SDS011;6405;59.208;18.216;2024-02-26T06:41:47;66.30;;;15.60;;
12681;SDS011;6405;59.208;18.216;2024-02-26T06:44:13;98.13;;;16.40;;
12681;SDS011;6405;59.208;18.216;2024-02-26T06:46:39;87.13;;;16.20;;
12681;SDS011;6405;59.208;18.216;2024-02-26T06:49:05;88.10;;;20.40;;
12681;SDS011;6405;59.208;18.216;2024-02-26T06:51:31;73.37;;;16.30;;
12681;SDS011;6405;59.208;18.216;2024-02-26T06:53:56;65.33;;;15.20;;
12681;SDS011;6405;59.208;18.216;2024-02-26T06:56:23;65.33;;;15.87;;
12681;SDS011;6405;59.208;18.216;2024-02-26T06:58:48;81.77;;;16.67;;
12681;SDS011;6405;59.208;18.216;2024-02-26T07:01:14;63.53;;;13.53;;
12681;SDS011;6405;59.208;18.216;2024-02-26T07:03:40;171.57;;;20.50;;
12681;SDS011;6405;59.208;18.216;2024-02-26T07:06:06;106.73;;;16.90;;
12681;SDS011;6405;59.208;18.216;2024-02-26T07:08:32;109.83;;;16.33;;
12681;SDS011;6405;59.208;18.216;2024-02-26T07:10:57;111.57;;;17.90;;
12681;SDS011;6405;59.208;18.216;2024-02-26T07:13:23;93.80;;;16.07;;
12681;SDS011;6405;59.208;18.216;2024-02-26T07:15:49;73.63;;;14.67;;
12681;SDS011;6405;59.208;18.216;2024-02-26T07:18:14;136.83;;;20.60;;
12681;SDS011;6405;59.208;18.216;2024-02-26T07:20:40;139.27;;;18.77;;
12681;SDS011;6405;59.208;18.216;2024-02-26T07:23:06;83.23;;;15.27;;
12681;SDS011;6405;59.208;18.216;2024-02-26T07:25:32;121.97;;;17.17;;
12681;SDS011;6405;59.208;18.216;2024-02-26T07:27:57;115.87;;;16.20;;
12681;SDS011;6405;59.208;18.216;2024-02-26T07:30:23;123.37;;;16.67;;
12681;SDS011;6405;59.208;18.216;2024-02-26T07:32:49;72.83;;;14.10;;
12681;SDS011;6405;59.208;18.216;2024-02-26T07:35:15;41.50;;;11.27;;
12681;SDS011;6405;59.208;18.216;2024-02-26T07:37:42;121.00;;;20.63;;
12681;SDS011;6405;59.208;18.216;2024-02-26T07:40:08;77.47;;;11.53;;
12681;SDS011;6405;59.208;18.216;2024-02-26T07:42:34;98.37;;;16.57;;
12681;SDS011;6405;59.208;18.216;2024-02-26T07:45:01;89.37;;;15.93;;
12681;SDS011;6405;59.208;18.216;2024-02-26T07:47:27;100.53;;;15.60;;
12681;SDS011;6405;59.208;18.216;2024-02-26T07:49:53;120.70;;;17.07;;
12681;SDS011;6405;59.208;18.216;2024-02-26T07:52:18;105.60;;;17.17;;
12681;SDS011;6405;59.208;18.216;2024-02-26T07:54:44;121.57;;;17.17;;
12681;SDS011;6405;59.208;18.216;2024-02-26T07:57:10;98.53;;;16.13;;
12681;SDS011;6405;59.208;18.216;2024-02-26T07:59:35;113.57;;;18.40;;
12681;SDS011;6405;59.208;18.216;2024-02-26T08:02:01;76.97;;;13.63;;
12681;SDS011;6405;59.208;18.216;2024-02-26T08:04:28;88.43;;;12.43;;
12681;SDS011;6405;59.208;18.216;2024-02-26T08:06:54;108.10;;;17.40;;
12681;SDS011;6405;59.208;18.216;2024-02-26T08:09:20;86.93;;;13.30;;
12681;SDS011;6405;59.208;18.216;2024-02-26T08:11:46;65.77;;;14.87;;
12681;SDS011;6405;59.208;18.216;2024-02-26T08:14:11;96.97;;;16.20;;
12681;SDS011;6405;59.208;18.216;2024-02-26T08:16:37;69.67;;;15.07;;
12681;SDS011;6405;59.208;18.216;2024-02-26T08:19:03;62.37;;;11.00;;
12681;SDS011;6405;59.208;18.216;2024-02-26T08:21:28;91.83;;;12.77;;
12681;SDS011;6405;59.208;18.216;2024-02-26T08:23:54;64.23;;;11.07;;
12681;SDS011;6405;59.208;18.216;2024-02-26T08:26:20;49.10;;;10.83;;
12681;SDS011;6405;59.208;18.216;2024-02-26T08:28:47;45.13;;;10.83;;
12681;SDS011;6405;59.208;18.216;2024-02-26T08:31:14;87.40;;;17.17;;
12681;SDS011;6405;59.208;18.216;2024-02-26T08:33:40;91.47;;;18.53;;
12681;SDS011;6405;59.208;18.216;2024-02-26T08:36:05;70.33;;;10.93;;
12681;SDS011;6405;59.208;18.216;2024-02-26T08:38:31;65.03;;;10.80;;
12681;SDS011;6405;59.208;18.216;2024-02-26T08:40:59;55.00;;;9.67;;
12681;SDS011;6405;59.208;18.216;2024-02-26T08:43:26;60.93;;;9.97;;
12681;SDS011;6405;59.208;18.216;2024-02-26T08:45:52;102.13;;;14.73;;
12681;SDS011;6405;59.208;18.216;2024-02-26T08:48:17;47.27;;;9.17;;
12681;SDS011;6405;59.208;18.216;2024-02-26T08:50:43;57.17;;;10.03;;
12681;SDS011;6405;59.208;18.216;2024-02-26T08:53:09;47.73;;;9.60;;
12681;SDS011;6405;59.208;18.216;2024-02-26T08:55:35;107.20;;;13.27;;
12681;SDS011;6405;59.208;18.216;2024-02-26T08:58:00;70.27;;;12.70;;
12681;SDS011;6405;59.208;18.216;2024-02-26T09:00:26;68.60;;;12.67;;
12681;SDS011;6405;59.208;18.216;2024-02-26T09:02:52;34.00;;;6.93;;
12681;SDS011;6405;59.208;18.216;2024-02-26T09:05:17;65.50;;;9.50;;
12681;SDS011;6405;59.208;18.216;2024-02-26T09:07:43;69.57;;;13.60;;
12681;SDS011;6405;59.208;18.216;2024-02-26T09:10:09;66.40;;;13.40;;
12681;SDS011;6405;59.208;18.216;2024-02-26T09:12:35;64.87;;;11.10;;
12681;SDS011;6405;59.208;18.216;2024-02-26T09:15:02;110.27;;;19.20;;
12681;SDS011;6405;59.208;18.216;2024-02-26T09:17:29;89.03;;;13.47;;
12681;SDS011;6405;59.208;18.216;2024-02-26T09:19:54;75.20;;;13.27;;
12681;SDS011;6405;59.208;18.216;2024-02-26T09:22:20;81.47;;;14.10;;
12681;SDS011;6405;59.208;18.216;2024-02-26T09:24:46;76.80;;;12.47;;
12681;SDS011;6405;59.208;18.216;2024-02-26T09:27:12;75.13;;;11.77;;
12681;SDS011;6405;59.208;18.216;2024-02-26T09:29:37;59.53;;;11.47;;
12681;SDS011;6405;59.208;18.216;2024-02-26T09:32:03;63.17;;;11.73;;
12681;SDS011;6405;59.208;18.216;2024-02-26T09:34:29;39.10;;;8.47;;
12681;SDS011;6405;59.208;18.216;2024-02-26T09:36:55;62.47;;;12.33;;
12681;SDS011;6405;59.208;18.216;2024-02-26T09:39:20;78.27;;;11.07;;
12681;SDS011;6405;59.208;18.216;2024-02-26T09:41:47;38.83;;;9.03;;
12681;SDS011;6405;59.208;18.216;2024-02-26T09:44:18;89.13;;;11.97;;
12681;SDS011;6405;59.208;18.216;2024-02-26T09:46:48;38.70;;;8.40;;
12681;SDS011;6405;59.208;18.216;2024-02-26T09:49:15;57.30;;;9.97;;
12681;SDS011;6405;59.208;18.216;2024-02-26T09:51:41;25.33;;;8.00;;
12681;SDS011;6405;59.208;18.216;2024-02-26T09:54:08;30.00;;;7.23;;
12681;SDS011;6405;59.208;18.216;2024-02-26T09:56:35;42.00;;;9.60;;
12681;SDS011;6405;59.208;18.216;2024-02-26T09:59:04;35.13;;;7.93;;
12681;SDS011;6405;59.208;18.216;2024-02-26T10:01:35;29.47;;;8.30;;
12681;SDS011;6405;59.208;18.216;2024-02-26T10:04:03;22.43;;;8.60;;
12681;SDS011;6405;59.208;18.216;2024-02-26T10:06:29;17.40;;;7.43;;
12681;SDS011;6405;59.208;18.216;2024-02-26T10:08:55;30.43;;;8.27;;
12681;SDS011;6405;59.208;18.216;2024-02-26T10:11:23;11.97;;;7.13;;
12681;SDS011;6405;59.208;18.216;2024-02-26T10:13:50;14.37;;;8.40;;
12681;SDS011;6405;59.208;18.216;2024-02-26T10:16:16;10.93;;;6.40;;
12681;SDS011;6405;59.208;18.216;2024-02-26T10:18:48;11.00;;;7.80;;
12681;SDS011;6405;59.208;18.216;2024-02-26T10:21:18;9.80;;;6.50;;
12681;SDS011;6405;59.208;18.216;2024-02-26T10:23:45;12.60;;;6.90;;
12681;SDS011;6405;59.208;18.216;2024-02-26T10:26:12;13.77;;;5.90;;
12681;SDS011;6405;59.208;18.216;2024-02-26T10:28:39;17.50;;;6.47;;
12681;SDS011;6405;59.208;18.216;2024-02-26T10:31:06;11.40;;;6.93;;
12681;SDS011;6405;59.208;18.216;2024-02-26T10:33:35;14.67;;;7.30;;
12681;SDS011;6405;59.208;18.216;2024-02-26T10:36:05;11.23;;;7.53;;
12681;SDS011;6405;59.208;18.216;2024-02-26T10:38:35;13.60;;;7.60;;
12681;SDS011;6405;59.208;18.216;2024-02-26T10:41:02;13.47;;;7.83;;
12681;SDS011;6405;59.208;18.216;2024-02-26T10:43:29;14.03;;;7.17;;
12681;SDS011;6405;59.208;18.216;2024-02-26T10:45:55;13.47;;;7.83;;
12681;SDS011;6405;59.208;18.216;2024-02-26T10:48:21;11.73;;;7.67;;
12681;SDS011;6405;59.208;18.216;2024-02-26T10:50:47;11.80;;;8.17;;
12681;SDS011;6405;59.208;18.216;2024-02-26T10:53:17;14.90;;;8.17;;
12681;SDS011;6405;59.208;18.216;2024-02-26T10:55:47;12.27;;;8.10;;
12681;SDS011;6405;59.208;18.216;2024-02-26T10:58:16;12.27;;;7.90;;
12681;SDS011;6405;59.208;18.216;2024-02-26T11:00:42;11.13;;;7.70;;
12681;SDS011;6405;59.208;18.216;2024-02-26T11:03:08;10.47;;;7.60;;
12681;SDS011;6405;59.208;18.216;2024-02-26T11:05:35;13.90;;;9.00;;
12681;SDS011;6405;59.208;18.216;2024-02-26T11:08:02;13.20;;;8.10;;
12681;SDS011;6405;59.208;18.216;2024-02-26T11:10:29;11.43;;;8.03;;
12681;SDS011;6405;59.208;18.216;2024-02-26T11:12:55;12.20;;;8.33;;
12681;SDS011;6405;59.208;18.216;2024-02-26T11:15:23;14.27;;;8.27;;
12681;SDS011;6405;59.208;18.216;2024-02-26T11:17:49;12.03;;;8.00;;
12681;SDS011;6405;59.208;18.216;2024-02-26T11:20:17;12.60;;;8.20;;
12681;SDS011;6405;59.208;18.216;2024-02-26T11:22:44;12.83;;;8.57;;
12681;SDS011;6405;59.208;18.216;2024-02-26T11:25:10;12.87;;;8.27;;
12681;SDS011;6405;59.208;18.216;2024-02-26T11:27:45;11.60;;;8.23;;
12681;SDS011;6405;59.208;18.216;2024-02-26T11:30:14;14.17;;;9.07;;
12681;SDS011;6405;59.208;18.216;2024-02-26T11:32:43;11.40;;;7.80;;
12681;SDS011;6405;59.208;18.216;2024-02-26T11:35:12;11.60;;;7.57;;
12681;SDS011;6405;59.208;18.216;2024-02-26T11:37:40;12.13;;;9.33;;
12681;SDS011;6405;59.208;18.216;2024-02-26T11:40:13;11.00;;;7.97;;
12681;SDS011;6405;59.208;18.216;2024-02-26T11:42:43;13.20;;;8.53;;
12681;SDS011;6405;59.208;18.216;2024-02-26T11:48:19;11.90;;;8.07;;
12681;SDS011;6405;59.208;18.216;2024-02-26T11:50:50;11.47;;;8.00;;
12681;SDS011;6405;59.208;18.216;2024-02-26T11:58:40;12.47;;;8.10;;
12681;SDS011;6405;59.208;18.216;2024-02-26T12:01:35;11.80;;;8.37;;
12681;SDS011;6405;59.208;18.216;2024-02-26T12:04:06;10.70;;;7.60;;
12681;SDS011;6405;59.208;18.216;2024-02-26T12:06:57;11.70;;;8.10;;
12681;SDS011;6405;59.208;18.216;2024-02-26T12:09:38;11.17;;;7.13;;
12681;SDS011;6405;59.208;18.216;2024-02-26T12:12:09;9.77;;;7.60;;
12681;SDS011;6405;59.208;18.216;2024-02-26T12:17:07;10.03;;;7.43;;
12681;SDS011;6405;59.208;18.216;2024-02-26T12:19:43;11.20;;;7.73;;
12681;SDS011;6405;59.208;18.216;2024-02-26T12:22:12;10.53;;;8.00;;
12681;SDS011;6405;59.208;18.216;2024-02-26T12:24:39;10.80;;;7.13;;
12681;SDS011;6405;59.208;18.216;2024-02-26T12:27:05;10.43;;;7.60;;
12681;SDS011;6405;59.208;18.216;2024-02-26T12:29:31;10.40;;;7.33;;
12681;SDS011;6405;59.208;18.216;2024-02-26T12:31:57;9.93;;;6.67;;
12681;SDS011;6405;59.208;18.216;2024-02-26T12:34:23;11.83;;;7.87;;
12681;SDS011;6405;59.208;18.216;2024-02-26T12:36:49;9.07;;;6.53;;
12681;SDS011;6405;59.208;18.216;2024-02-26T12:39:14;7.63;;;6.00;;
12681;SDS011;6405;59.208;18.216;2024-02-26T12:41:40;8.53;;;6.47;;
12681;SDS011;6405;59.208;18.216;2024-02-26T12:44:07;7.73;;;5.87;;
12681;SDS011;6405;59.208;18.216;2024-02-26T12:46:33;10.00;;;6.77;;
12681;SDS011;6405;59.208;18.216;2024-02-26T12:48:59;7.43;;;5.83;;
12681;SDS011;6405;59.208;18.216;2024-02-26T12:51:25;8.67;;;6.37;;
12681;SDS011;6405;59.208;18.216;2024-02-26T12:53:51;8.93;;;5.93;;
12681;SDS011;6405;59.208;18.216;2024-02-26T12:56:18;9.33;;;7.00;;
12681;SDS011;6405;59.208;18.216;2024-02-26T12:58:44;12.53;;;8.83;;
12681;SDS011;6405;59.208;18.216;2024-02-26T13:01:15;30.77;;;19.57;;
12681;SDS011;6405;59.208;18.216;2024-02-26T13:03:42;18.43;;;11.90;;
12681;SDS011;6405;59.208;18.216;2024-02-26T13:06:09;14.53;;;10.03;;
12681;SDS011;6405;59.208;18.216;2024-02-26T13:08:35;12.37;;;8.83;;
12681;SDS011;6405;59.208;18.216;2024-02-26T13:11:01;12.07;;;8.53;;
12681;SDS011;6405;59.208;18.216;2024-02-26T13:13:27;12.20;;;7.33;;
12681;SDS011;6405;59.208;18.216;2024-02-26T13:16:05;11.47;;;7.30;;
12681;SDS011;6405;59.208;18.216;2024-02-26T13:18:33;11.37;;;8.17;;
12681;SDS011;6405;59.208;18.216;2024-02-26T13:21:09;10.67;;;8.00;;
12681;SDS011;6405;59.208;18.216;2024-02-26T13:23:36;11.77;;;8.00;;
12681;SDS011;6405;59.208;18.216;2024-02-26T13:26:03;11.27;;;7.93;;
12681;SDS011;6405;59.208;18.216;2024-02-26T13:28:29;13.73;;;9.20;;
12681;SDS011;6405;59.208;18.216;2024-02-26T13:30:55;11.90;;;8.30;;
12681;SDS011;6405;59.208;18.216;2024-02-26T13:33:22;12.40;;;8.73;;
12681;SDS011;6405;59.208;18.216;2024-02-26T13:35:52;14.63;;;9.00;;
12681;SDS011;6405;59.208;18.216;2024-02-26T13:38:19;15.00;;;8.57;;
12681;SDS011;6405;59.208;18.216;2024-02-26T13:40:45;10.50;;;7.70;;
12681;SDS011;6405;59.208;18.216;2024-02-26T13:43:10;11.87;;;8.20;;
12681;SDS011;6405;59.208;18.216;2024-02-26T13:45:37;11.27;;;7.50;;
12681;SDS011;6405;59.208;18.216;2024-02-26T13:48:04;11.33;;;8.20;;
12681;SDS011;6405;59.208;18.216;2024-02-26T13:50:32;12.03;;;7.83;;
12681;SDS011;6405;59.208;18.216;2024-02-26T13:52:58;12.17;;;8.00;;
12681;SDS011;6405;59.208;18.216;2024-02-26T13:55:26;11.53;;;8.03;;
12681;SDS011;6405;59.208;18.216;2024-02-26T13:57:57;13.57;;;7.57;;
12681;SDS011;6405;59.208;18.216;2024-02-26T14:00:23;19.53;;;8.43;;
12681;SDS011;6405;59.208;18.216;2024-02-26T14:02:50;12.30;;;8.37;;
12681;SDS011;6405;59.208;18.216;2024-02-26T14:05:16;11.40;;;8.00;;
12681;SDS011;6405;59.208;18.216;2024-02-26T14:07:42;10.37;;;7.70;;
12681;SDS011;6405;59.208;18.216;2024-02-26T14:10:11;9.60;;;7.13;;
12681;SDS011;6405;59.208;18.216;2024-02-26T14:12:37;9.37;;;7.30;;
12681;SDS011;6405;59.208;18.216;2024-02-26T14:15:05;10.77;;;7.53;;
12681;SDS011;6405;59.208;18.216;2024-02-26T14:17:32;12.07;;;7.80;;
12681;SDS011;6405;59.208;18.216;2024-02-26T14:19:58;13.27;;;8.33;;
12681;SDS011;6405;59.208;18.216;2024-02-26T14:22:24;15.23;;;7.93;;
12681;SDS011;6405;59.208;18.216;2024-02-26T14:24:53;11.60;;;7.27;;
12681;SDS011;6405;59.208;18.216;2024-02-26T14:27:19;12.00;;;8.23;;
12681;SDS011;6405;59.208;18.216;2024-02-26T14:29:47;10.30;;;6.97;;
12681;SDS011;6405;59.208;18.216;2024-02-26T14:32:13;16.67;;;7.77;;
12681;SDS011;6405;59.208;18.216;2024-02-26T14:34:39;11.20;;;7.33;;